KCOUKADS

Guest
Details From KCOU - Columbia Rgnl
To KADS - ADDISON
Flight Number -
Tags decoded
Created
Modified
Stats Distance 420 nm / 777 km
Max Altitude 0 ft / 0 m
Waypoints 3
Social Downloads 0
Likes 0
Share VATSIM

Download

Looking for another format? Having issues loading an existing format? Contact us
Advertisement - Login to hide

Notes

Requested: KCOU EOS AXXEE SLANT3 KADS Unmatched points: AXXEE SLANT3

Route

KCOU EOS KADS

ID Type Via Altitude Latitude Longitude Leg Dist Tot Dist Heading (true) Name
O KCOU APT - 0 ft / 0 m 38.81904˚ -92.21958˚ - 0 nm - Columbia Rgnl
EOS VOR - 0 ft / 0 m 36.84244˚ -94.43569˚ 158 nm 158 nm 222° / 221° NEOSHO VOR-DME
O KADS APT - 0 ft / 0 m 32.96856˚ -96.83645˚ 260 nm 419 nm 208° / 206° ADDISON

Altitude Profile

Advertisement - Login to hide

Weather


0- 5 10 15 20 25 30 35+ Temperature / ° C

Clouds and Precipitation
Forecast for 2018-05-23 18:00 UTC. Updated 4 minutes ago

Ground ~20,000 ft ~40,000 ft Winds

KCOU

Details ICAO KCOU (COU)
Name Columbia Rgnl
Region United States
Timezone America/Chicago (UTC-5.0)
Stats Elevation 889 ft / 271 m (AMSL)
Location 38.819040° -92.219575°
Runways 2
Magnetic Variation 0.084° W

METAR

KCOU 231654Z 15003KT 10SM CLR 28/20 A3015 RMK AO2 SLP200 T02830200

Decode

TAF

KCOU 231122Z 2312/2412 11006KT P6SM FEW250

Decode

Departure Runways

ID Width Length Bearing (true) Bearing (mag) Surface Threshold Offset Overrun Length
02 150 ft / 46 m 6,510 ft / 1,984 m 21.36° 21.44° Concrete 0 ft / 0 m 0 ft / 0 m
13 75 ft / 23 m 4,399 ft / 1,341 m 135.54° 135.62° Asphalt 0 ft / 0 m 0 ft / 0 m
20 150 ft / 46 m 6,510 ft / 1,984 m 201.36° 201.44° Concrete 0 ft / 0 m 0 ft / 0 m
31 75 ft / 23 m 4,399 ft / 1,341 m 315.54° 315.62° Asphalt 0 ft / 0 m 0 ft / 0 m

KADS

Details ICAO KADS (ADS)
Name ADDISON
Region United States
Timezone America/Chicago (UTC-5.0)
Stats Elevation 644 ft / 196 m (AMSL)
Location 32.968558° -96.836454°
Runways 1
Magnetic Variation 3.264° E

METAR

KADS 231649Z 17007KT 10SM SCT038 30/19 A3008

Decode

TAF

Not found

Destination Runways

ID Width Length Bearing (true) Bearing (mag) Surface Threshold Offset Overrun Length
15 100 ft / 30 m 7,218 ft / 2,200 m 159.87° 156.61° Asphalt 979 ft / 298 m 0 ft / 0 m
33 100 ft / 30 m 7,218 ft / 2,200 m 339.87° 336.61° Asphalt 771 ft / 235 m 0 ft / 0 m

Approach Navaids

Runway Type Ident Frequency Range Bearing (true) Bearing (mag) Slope Elevation
15 Localiser IADS 110.10 MHz 18 nm / 33 km 159.87° 156.61° - 630 ft / 192 m (AMSL)
15 Glidescope IADS 110.10 MHz 10 nm / 19 km 159.87° 156.61° 3.00° 629 ft / 192 m (AMSL)
15 DME IADS 110.10 MHz 18 nm / 33 km - - - 643 ft / 196 m (AMSL)
33 Localiser ITBQ 110.10 MHz 18 nm / 33 km 339.87° 336.61° - 639 ft / 195 m (AMSL)
33 Glidescope ITBQ 110.10 MHz 10 nm / 19 km 339.87° 336.61° 3.00° 645 ft / 197 m (AMSL)
33 DME ITBQ 110.10 MHz 18 nm / 33 km - - - 643 ft / 196 m (AMSL)

Popular Alternatives